sensor_id;sensor_type;location;lat;lon;timestamp;P1;durP1;ratioP1;P2;durP2;ratioP2
14688;SDS011;7432;48.728;9.154;2023-04-06T00:02:23;12.20;;;10.37;;
14688;SDS011;7432;48.728;9.154;2023-04-06T00:04:49;12.77;;;10.03;;
14688;SDS011;7432;48.728;9.154;2023-04-06T00:07:15;11.30;;;10.00;;
14688;SDS011;7432;48.728;9.154;2023-04-06T00:09:42;12.27;;;10.07;;
14688;SDS011;7432;48.728;9.154;2023-04-06T00:12:10;11.50;;;8.87;;
14688;SDS011;7432;48.728;9.154;2023-04-06T00:14:36;11.00;;;9.87;;
14688;SDS011;7432;48.728;9.154;2023-04-06T00:17:02;12.13;;;10.03;;
14688;SDS011;7432;48.728;9.154;2023-04-06T00:19:29;12.07;;;10.00;;
14688;SDS011;7432;48.728;9.154;2023-04-06T00:21:55;9.67;;;8.77;;
14688;SDS011;7432;48.728;9.154;2023-04-06T00:24:21;11.27;;;10.13;;
14688;SDS011;7432;48.728;9.154;2023-04-06T00:26:48;10.57;;;9.47;;
14688;SDS011;7432;48.728;9.154;2023-04-06T00:29:15;12.13;;;9.87;;
14688;SDS011;7432;48.728;9.154;2023-04-06T00:31:42;11.10;;;9.33;;
14688;SDS011;7432;48.728;9.154;2023-04-06T00:34:09;11.63;;;9.70;;
14688;SDS011;7432;48.728;9.154;2023-04-06T00:36:36;11.03;;;9.93;;
14688;SDS011;7432;48.728;9.154;2023-04-06T00:39:02;12.17;;;10.07;;
14688;SDS011;7432;48.728;9.154;2023-04-06T00:41:28;11.37;;;9.23;;
14688;SDS011;7432;48.728;9.154;2023-04-06T00:43:55;10.87;;;9.40;;
14688;SDS011;7432;48.728;9.154;2023-04-06T00:46:23;13.13;;;9.10;;
14688;SDS011;7432;48.728;9.154;2023-04-06T00:48:50;11.80;;;10.60;;
14688;SDS011;7432;48.728;9.154;2023-04-06T00:51:16;12.47;;;10.43;;
14688;SDS011;7432;48.728;9.154;2023-04-06T00:53:43;11.93;;;9.83;;
14688;SDS011;7432;48.728;9.154;2023-04-06T00:56:10;11.87;;;10.07;;
14688;SDS011;7432;48.728;9.154;2023-04-06T00:58:36;14.73;;;10.00;;
14688;SDS011;7432;48.728;9.154;2023-04-06T01:01:03;10.77;;;9.67;;
14688;SDS011;7432;48.728;9.154;2023-04-06T01:03:31;11.10;;;8.93;;
14688;SDS011;7432;48.728;9.154;2023-04-06T01:05:57;10.70;;;9.60;;
14688;SDS011;7432;48.728;9.154;2023-04-06T01:08:24;10.00;;;8.67;;
14688;SDS011;7432;48.728;9.154;2023-04-06T01:10:50;12.73;;;9.73;;
14688;SDS011;7432;48.728;9.154;2023-04-06T01:13:17;9.43;;;8.47;;
14688;SDS011;7432;48.728;9.154;2023-04-06T01:15:43;11.00;;;9.47;;
14688;SDS011;7432;48.728;9.154;2023-04-06T01:18:10;10.57;;;9.37;;
14688;SDS011;7432;48.728;9.154;2023-04-06T01:20:38;10.83;;;9.10;;
14688;SDS011;7432;48.728;9.154;2023-04-06T01:23:05;10.17;;;9.10;;
14688;SDS011;7432;48.728;9.154;2023-04-06T01:25:32;11.00;;;9.83;;
14688;SDS011;7432;48.728;9.154;2023-04-06T01:27:58;11.40;;;9.40;;
14688;SDS011;7432;48.728;9.154;2023-04-06T01:30:25;10.40;;;9.30;;
14688;SDS011;7432;48.728;9.154;2023-04-06T01:32:51;12.53;;;9.73;;
14688;SDS011;7432;48.728;9.154;2023-04-06T01:35:18;10.17;;;9.10;;
14688;SDS011;7432;48.728;9.154;2023-04-06T01:37:44;12.47;;;10.67;;
14688;SDS011;7432;48.728;9.154;2023-04-06T01:40:12;10.97;;;9.47;;
14688;SDS011;7432;48.728;9.154;2023-04-06T01:42:39;11.23;;;10.13;;
14688;SDS011;7432;48.728;9.154;2023-04-06T01:45:06;11.00;;;9.80;;
14688;SDS011;7432;48.728;9.154;2023-04-06T01:47:33;11.23;;;10.07;;
14688;SDS011;7432;48.728;9.154;2023-04-06T01:49:59;10.93;;;9.83;;
14688;SDS011;7432;48.728;9.154;2023-04-06T01:52:27;11.87;;;9.63;;
14688;SDS011;7432;48.728;9.154;2023-04-06T01:54:53;11.13;;;9.37;;
14688;SDS011;7432;48.728;9.154;2023-04-06T01:57:21;11.07;;;9.97;;
14688;SDS011;7432;48.728;9.154;2023-04-06T01:59:48;12.10;;;9.83;;
14688;SDS011;7432;48.728;9.154;2023-04-06T02:02:14;11.67;;;10.10;;
14688;SDS011;7432;48.728;9.154;2023-04-06T02:04:41;11.17;;;10.03;;
14688;SDS011;7432;48.728;9.154;2023-04-06T02:07:07;10.80;;;9.70;;
14688;SDS011;7432;48.728;9.154;2023-04-06T02:09:34;11.47;;;9.77;;
14688;SDS011;7432;48.728;9.154;2023-04-06T02:12:02;18.27;;;10.90;;
14688;SDS011;7432;48.728;9.154;2023-04-06T02:14:30;13.10;;;10.63;;
14688;SDS011;7432;48.728;9.154;2023-04-06T02:16:56;10.73;;;9.63;;
14688;SDS011;7432;48.728;9.154;2023-04-06T02:19:23;11.97;;;10.27;;
14688;SDS011;7432;48.728;9.154;2023-04-06T02:21:49;11.63;;;10.27;;
14688;SDS011;7432;48.728;9.154;2023-04-06T02:24:15;12.00;;;10.60;;
14688;SDS011;7432;48.728;9.154;2023-04-06T02:26:42;12.73;;;10.43;;
14688;SDS011;7432;48.728;9.154;2023-04-06T02:29:08;12.60;;;10.50;;
14688;SDS011;7432;48.728;9.154;2023-04-06T02:31:37;11.97;;;10.00;;
14688;SDS011;7432;48.728;9.154;2023-04-06T02:34:03;12.07;;;10.67;;
14688;SDS011;7432;48.728;9.154;2023-04-06T02:36:29;10.80;;;9.63;;
14688;SDS011;7432;48.728;9.154;2023-04-06T02:38:56;13.67;;;10.20;;
14688;SDS011;7432;48.728;9.154;2023-04-06T02:41:22;14.33;;;12.23;;
14688;SDS011;7432;48.728;9.154;2023-04-06T02:43:48;12.87;;;10.33;;
14688;SDS011;7432;48.728;9.154;2023-04-06T02:46:15;12.00;;;10.70;;
14688;SDS011;7432;48.728;9.154;2023-04-06T02:48:43;14.23;;;10.00;;
14688;SDS011;7432;48.728;9.154;2023-04-06T02:51:09;13.83;;;10.83;;
14688;SDS011;7432;48.728;9.154;2023-04-06T02:53:35;13.27;;;11.23;;
14688;SDS011;7432;48.728;9.154;2023-04-06T02:56:02;12.87;;;10.57;;
14688;SDS011;7432;48.728;9.154;2023-04-06T02:58:28;12.43;;;10.70;;
14688;SDS011;7432;48.728;9.154;2023-04-06T03:00:54;13.10;;;10.63;;
14688;SDS011;7432;48.728;9.154;2023-04-06T03:03:21;11.20;;;10.10;;
14688;SDS011;7432;48.728;9.154;2023-04-06T03:05:48;11.03;;;9.93;;
14688;SDS011;7432;48.728;9.154;2023-04-06T03:08:15;12.37;;;10.77;;
14688;SDS011;7432;48.728;9.154;2023-04-06T03:10:41;12.40;;;11.10;;
14688;SDS011;7432;48.728;9.154;2023-04-06T03:13:08;12.67;;;11.37;;
14688;SDS011;7432;48.728;9.154;2023-04-06T03:15:34;12.70;;;11.40;;
14688;SDS011;7432;48.728;9.154;2023-04-06T03:18:00;12.23;;;10.93;;
14688;SDS011;7432;48.728;9.154;2023-04-06T03:20:27;14.37;;;12.13;;
14688;SDS011;7432;48.728;9.154;2023-04-06T03:22:54;10.07;;;8.97;;
14688;SDS011;7432;48.728;9.154;2023-04-06T03:25:21;13.23;;;11.07;;
14688;SDS011;7432;48.728;9.154;2023-04-06T03:27:47;12.80;;;11.20;;
14688;SDS011;7432;48.728;9.154;2023-04-06T03:30:14;13.07;;;11.43;;
14688;SDS011;7432;48.728;9.154;2023-04-06T03:32:42;12.37;;;10.30;;
14688;SDS011;7432;48.728;9.154;2023-04-06T03:35:08;12.00;;;10.70;;
14688;SDS011;7432;48.728;9.154;2023-04-06T03:37:35;12.10;;;10.90;;
14688;SDS011;7432;48.728;9.154;2023-04-06T03:40:03;12.37;;;11.07;;
14688;SDS011;7432;48.728;9.154;2023-04-06T03:42:31;14.40;;;11.50;;
14688;SDS011;7432;48.728;9.154;2023-04-06T03:44:57;13.83;;;11.77;;
14688;SDS011;7432;48.728;9.154;2023-04-06T03:47:24;13.10;;;10.80;;
14688;SDS011;7432;48.728;9.154;2023-04-06T03:49:50;12.83;;;11.17;;
14688;SDS011;7432;48.728;9.154;2023-04-06T03:52:17;13.57;;;10.73;;
14688;SDS011;7432;48.728;9.154;2023-04-06T03:54:43;11.77;;;10.63;;
14688;SDS011;7432;48.728;9.154;2023-04-06T03:57:11;14.03;;;10.40;;
14688;SDS011;7432;48.728;9.154;2023-04-06T03:59:38;12.87;;;10.80;;
14688;SDS011;7432;48.728;9.154;2023-04-06T04:02:04;13.33;;;11.73;;
14688;SDS011;7432;48.728;9.154;2023-04-06T04:04:30;12.33;;;10.73;;
14688;SDS011;7432;48.728;9.154;2023-04-06T04:06:57;13.57;;;11.53;;
14688;SDS011;7432;48.728;9.154;2023-04-06T04:09:23;14.17;;;11.30;;
14688;SDS011;7432;48.728;9.154;2023-04-06T04:11:49;12.43;;;11.00;;
14688;SDS011;7432;48.728;9.154;2023-04-06T04:14:17;12.83;;;11.43;;
14688;SDS011;7432;48.728;9.154;2023-04-06T04:16:43;13.63;;;10.97;;
14688;SDS011;7432;48.728;9.154;2023-04-06T04:19:10;13.30;;;10.33;;
14688;SDS011;7432;48.728;9.154;2023-04-06T04:21:41;12.00;;;10.47;;
14688;SDS011;7432;48.728;9.154;2023-04-06T04:24:09;12.87;;;10.23;;
14688;SDS011;7432;48.728;9.154;2023-04-06T04:26:35;16.17;;;10.70;;
14688;SDS011;7432;48.728;9.154;2023-04-06T04:29:02;13.70;;;11.50;;
14688;SDS011;7432;48.728;9.154;2023-04-06T04:31:30;12.73;;;10.67;;
14688;SDS011;7432;48.728;9.154;2023-04-06T04:33:57;13.27;;;11.47;;
14688;SDS011;7432;48.728;9.154;2023-04-06T04:36:23;13.73;;;11.20;;
14688;SDS011;7432;48.728;9.154;2023-04-06T04:38:50;13.93;;;11.90;;
14688;SDS011;7432;48.728;9.154;2023-04-06T04:41:16;15.53;;;12.03;;
14688;SDS011;7432;48.728;9.154;2023-04-06T04:43:43;15.97;;;11.63;;
14688;SDS011;7432;48.728;9.154;2023-04-06T04:46:09;14.37;;;12.03;;
14688;SDS011;7432;48.728;9.154;2023-04-06T04:48:37;13.27;;;11.63;;
14688;SDS011;7432;48.728;9.154;2023-04-06T04:51:04;11.83;;;10.63;;
14688;SDS011;7432;48.728;9.154;2023-04-06T04:53:30;15.13;;;11.20;;
14688;SDS011;7432;48.728;9.154;2023-04-06T04:55:57;15.20;;;12.73;;
14688;SDS011;7432;48.728;9.154;2023-04-06T04:58:23;14.63;;;11.43;;
14688;SDS011;7432;48.728;9.154;2023-04-06T05:00:49;13.60;;;11.33;;
14688;SDS011;7432;48.728;9.154;2023-04-06T05:03:17;12.53;;;11.23;;
14688;SDS011;7432;48.728;9.154;2023-04-06T05:05:47;15.27;;;10.87;;
14688;SDS011;7432;48.728;9.154;2023-04-06T05:08:15;13.83;;;12.33;;
14688;SDS011;7432;48.728;9.154;2023-04-06T05:10:41;14.13;;;11.00;;
14688;SDS011;7432;48.728;9.154;2023-04-06T05:13:07;14.43;;;10.90;;
14688;SDS011;7432;48.728;9.154;2023-04-06T05:15:34;15.27;;;11.37;;
14688;SDS011;7432;48.728;9.154;2023-04-06T05:18:02;13.27;;;11.83;;
14688;SDS011;7432;48.728;9.154;2023-04-06T05:20:29;13.93;;;10.23;;
14688;SDS011;7432;48.728;9.154;2023-04-06T05:22:57;12.63;;;10.67;;
14688;SDS011;7432;48.728;9.154;2023-04-06T05:25:23;14.47;;;11.33;;
14688;SDS011;7432;48.728;9.154;2023-04-06T05:27:50;13.23;;;11.17;;
14688;SDS011;7432;48.728;9.154;2023-04-06T05:30:16;12.30;;;10.70;;
14688;SDS011;7432;48.728;9.154;2023-04-06T05:32:43;17.67;;;12.80;;
14688;SDS011;7432;48.728;9.154;2023-04-06T05:35:09;17.20;;;11.97;;
14688;SDS011;7432;48.728;9.154;2023-04-06T05:37:36;12.03;;;10.57;;
14688;SDS011;7432;48.728;9.154;2023-04-06T05:40:05;11.57;;;10.37;;
14688;SDS011;7432;48.728;9.154;2023-04-06T05:42:35;12.40;;;11.10;;
14688;SDS011;7432;48.728;9.154;2023-04-06T05:45:03;16.20;;;11.13;;
14688;SDS011;7432;48.728;9.154;2023-04-06T05:47:30;11.77;;;10.53;;
14688;SDS011;7432;48.728;9.154;2023-04-06T05:49:56;13.20;;;9.67;;
14688;SDS011;7432;48.728;9.154;2023-04-06T05:52:22;14.43;;;10.60;;
14688;SDS011;7432;48.728;9.154;2023-04-06T05:54:49;11.67;;;10.47;;
14688;SDS011;7432;48.728;9.154;2023-04-06T05:57:16;12.97;;;10.50;;
14688;SDS011;7432;48.728;9.154;2023-04-06T05:59:43;12.20;;;10.20;;
14688;SDS011;7432;48.728;9.154;2023-04-06T06:02:10;12.60;;;10.17;;
14688;SDS011;7432;48.728;9.154;2023-04-06T06:04:36;10.77;;;9.80;;
14688;SDS011;7432;48.728;9.154;2023-04-06T06:07:02;11.83;;;9.73;;
14688;SDS011;7432;48.728;9.154;2023-04-06T06:09:30;10.70;;;9.67;;
14688;SDS011;7432;48.728;9.154;2023-04-06T06:11:56;10.50;;;9.50;;
14688;SDS011;7432;48.728;9.154;2023-04-06T06:14:24;12.93;;;9.60;;
14688;SDS011;7432;48.728;9.154;2023-04-06T06:16:53;11.13;;;9.83;;
14688;SDS011;7432;48.728;9.154;2023-04-06T06:19:19;12.67;;;10.23;;
14688;SDS011;7432;48.728;9.154;2023-04-06T06:21:46;10.63;;;9.53;;
14688;SDS011;7432;48.728;9.154;2023-04-06T06:24:12;11.03;;;9.87;;
14688;SDS011;7432;48.728;9.154;2023-04-06T06:26:38;9.67;;;8.67;;
14688;SDS011;7432;48.728;9.154;2023-04-06T06:29:05;9.43;;;8.53;;
14688;SDS011;7432;48.728;9.154;2023-04-06T06:31:33;11.83;;;9.27;;
14688;SDS011;7432;48.728;9.154;2023-04-06T06:34:00;10.53;;;9.37;;
14688;SDS011;7432;48.728;9.154;2023-04-06T06:36:27;9.70;;;8.70;;
14688;SDS011;7432;48.728;9.154;2023-04-06T06:38:53;10.33;;;9.50;;
14688;SDS011;7432;48.728;9.154;2023-04-06T06:41:19;10.50;;;9.60;;
14688;SDS011;7432;48.728;9.154;2023-04-06T06:43:46;11.07;;;10.07;;
14688;SDS011;7432;48.728;9.154;2023-04-06T06:46:12;10.13;;;9.30;;
14688;SDS011;7432;48.728;9.154;2023-04-06T06:48:40;10.00;;;9.10;;
14688;SDS011;7432;48.728;9.154;2023-04-06T06:51:06;11.20;;;10.17;;
14688;SDS011;7432;48.728;9.154;2023-04-06T06:53:34;10.70;;;9.80;;
14688;SDS011;7432;48.728;9.154;2023-04-06T06:56:00;11.50;;;10.50;;
14688;SDS011;7432;48.728;9.154;2023-04-06T06:58:27;12.07;;;9.98;;
14688;SDS011;7432;48.728;9.154;2023-04-06T07:00:55;12.57;;;10.03;;
14688;SDS011;7432;48.728;9.154;2023-04-06T07:03:22;11.95;;;10.85;;
14688;SDS011;7432;48.728;9.154;2023-04-06T07:05:50;11.43;;;10.32;;
14688;SDS011;7432;48.728;9.154;2023-04-06T07:08:18;11.27;;;10.13;;
14688;SDS011;7432;48.728;9.154;2023-04-06T07:10:45;12.00;;;10.87;;
14688;SDS011;7432;48.728;9.154;2023-04-06T07:13:11;12.13;;;10.77;;
14688;SDS011;7432;48.728;9.154;2023-04-06T07:15:39;12.48;;;11.40;;
14688;SDS011;7432;48.728;9.154;2023-04-06T07:18:05;13.10;;;11.82;;
14688;SDS011;7432;48.728;9.154;2023-04-06T07:20:32;10.88;;;9.93;;
14688;SDS011;7432;48.728;9.154;2023-04-06T07:23:00;11.70;;;10.70;;
14688;SDS011;7432;48.728;9.154;2023-04-06T07:25:27;11.00;;;10.00;;
14688;SDS011;7432;48.728;9.154;2023-04-06T07:27:53;13.27;;;10.75;;
14688;SDS011;7432;48.728;9.154;2023-04-06T07:30:20;12.63;;;11.35;;
14688;SDS011;7432;48.728;9.154;2023-04-06T07:32:47;12.43;;;11.30;;
14688;SDS011;7432;48.728;9.154;2023-04-06T07:35:13;12.05;;;10.95;;
14688;SDS011;7432;48.728;9.154;2023-04-06T07:37:40;12.43;;;11.32;;
14688;SDS011;7432;48.728;9.154;2023-04-06T07:40:09;12.63;;;11.40;;
14688;SDS011;7432;48.728;9.154;2023-04-06T07:42:35;11.77;;;10.67;;
14688;SDS011;7432;48.728;9.154;2023-04-06T07:45:02;11.37;;;10.17;;
14688;SDS011;7432;48.728;9.154;2023-04-06T07:47:29;10.80;;;9.90;;
14688;SDS011;7432;48.728;9.154;2023-04-06T07:49:55;11.23;;;10.23;;
14688;SDS011;7432;48.728;9.154;2023-04-06T07:52:22;11.53;;;10.57;;
14688;SDS011;7432;48.728;9.154;2023-04-06T07:54:48;34.23;;;11.70;;
14688;SDS011;7432;48.728;9.154;2023-04-06T07:57:16;11.23;;;10.20;;
14688;SDS011;7432;48.728;9.154;2023-04-06T07:59:43;11.43;;;10.33;;
14688;SDS011;7432;48.728;9.154;2023-04-06T08:02:09;16.52;;;11.10;;
14688;SDS011;7432;48.728;9.154;2023-04-06T08:04:35;11.65;;;10.75;;
14688;SDS011;7432;48.728;9.154;2023-04-06T08:07:02;11.52;;;10.52;;
14688;SDS011;7432;48.728;9.154;2023-04-06T08:09:28;20.25;;;12.23;;
14688;SDS011;7432;48.728;9.154;2023-04-06T08:11:55;12.13;;;11.02;;
14688;SDS011;7432;48.728;9.154;2023-04-06T08:14:22;11.77;;;10.88;;
14688;SDS011;7432;48.728;9.154;2023-04-06T08:16:49;10.93;;;10.13;;
14688;SDS011;7432;48.728;9.154;2023-04-06T08:19:15;10.77;;;9.98;;
14688;SDS011;7432;48.728;9.154;2023-04-06T08:21:42;10.70;;;9.90;;
14688;SDS011;7432;48.728;9.154;2023-04-06T08:24:08;11.55;;;10.55;;
14688;SDS011;7432;48.728;9.154;2023-04-06T08:26:35;12.07;;;10.95;;
14688;SDS011;7432;48.728;9.154;2023-04-06T08:29:01;12.10;;;11.00;;
14688;SDS011;7432;48.728;9.154;2023-04-06T08:31:30;11.05;;;10.15;;
14688;SDS011;7432;48.728;9.154;2023-04-06T08:33:57;11.32;;;10.18;;
14688;SDS011;7432;48.728;9.154;2023-04-06T08:36:23;10.60;;;9.80;;
14688;SDS011;7432;48.728;9.154;2023-04-06T08:38:49;12.18;;;11.27;;
14688;SDS011;7432;48.728;9.154;2023-04-06T08:41:16;11.30;;;10.38;;
14688;SDS011;7432;48.728;9.154;2023-04-06T08:43:44;12.32;;;11.18;;
14688;SDS011;7432;48.728;9.154;2023-04-06T08:46:13;12.98;;;11.98;;
14688;SDS011;7432;48.728;9.154;2023-04-06T08:48:42;12.57;;;11.68;;
14688;SDS011;7432;48.728;9.154;2023-04-06T08:51:09;12.82;;;11.48;;
14688;SDS011;7432;48.728;9.154;2023-04-06T08:53:36;13.02;;;12.02;;
14688;SDS011;7432;48.728;9.154;2023-04-06T08:56:03;13.38;;;12.30;;
14688;SDS011;7432;48.728;9.154;2023-04-06T08:58:32;12.55;;;11.32;;
14688;SDS011;7432;48.728;9.154;2023-04-06T09:01:00;11.77;;;10.88;;
14688;SDS011;7432;48.728;9.154;2023-04-06T09:03:29;12.60;;;11.50;;
14688;SDS011;7432;48.728;9.154;2023-04-06T09:05:58;11.90;;;10.70;;
14688;SDS011;7432;48.728;9.154;2023-04-06T09:08:25;12.43;;;11.52;;
14688;SDS011;7432;48.728;9.154;2023-04-06T09:10:52;13.05;;;11.95;;
14688;SDS011;7432;48.728;9.154;2023-04-06T09:13:18;11.40;;;10.60;;
14688;SDS011;7432;48.728;9.154;2023-04-06T09:15:45;12.02;;;11.02;;
14688;SDS011;7432;48.728;9.154;2023-04-06T09:18:11;12.07;;;11.00;;
14688;SDS011;7432;48.728;9.154;2023-04-06T09:20:37;11.18;;;10.38;;
14688;SDS011;7432;48.728;9.154;2023-04-06T09:23:05;12.45;;;11.35;;
14688;SDS011;7432;48.728;9.154;2023-04-06T09:25:32;12.85;;;11.95;;
14688;SDS011;7432;48.728;9.154;2023-04-06T09:27:58;10.35;;;9.55;;
14688;SDS011;7432;48.728;9.154;2023-04-06T09:30:26;10.77;;;9.98;;
14688;SDS011;7432;48.728;9.154;2023-04-06T09:32:53;10.73;;;9.93;;
14688;SDS011;7432;48.728;9.154;2023-04-06T09:35:20;11.07;;;10.27;;
14688;SDS011;7432;48.728;9.154;2023-04-06T09:37:48;11.75;;;10.75;;
14688;SDS011;7432;48.728;9.154;2023-04-06T09:40:17;12.10;;;11.20;;
14688;SDS011;7432;48.728;9.154;2023-04-06T09:42:46;11.40;;;10.57;;
14688;SDS011;7432;48.728;9.154;2023-04-06T09:45:13;10.48;;;9.77;;
14688;SDS011;7432;48.728;9.154;2023-04-06T09:47:42;10.73;;;9.93;;
14688;SDS011;7432;48.728;9.154;2023-04-06T09:50:10;10.93;;;10.07;;
14688;SDS011;7432;48.728;9.154;2023-04-06T09:52:37;10.35;;;9.55;;
14688;SDS011;7432;48.728;9.154;2023-04-06T09:55:08;11.15;;;10.25;;
14688;SDS011;7432;48.728;9.154;2023-04-06T09:57:39;11.35;;;10.55;;
14688;SDS011;7432;48.728;9.154;2023-04-06T10:00:11;10.45;;;9.65;;
14688;SDS011;7432;48.728;9.154;2023-04-06T10:02:45;12.35;;;11.32;;
14688;SDS011;7432;48.728;9.154;2023-04-06T10:05:19;11.30;;;10.40;;
14688;SDS011;7432;48.728;9.154;2023-04-06T10:07:48;12.02;;;10.93;;
14688;SDS011;7432;48.728;9.154;2023-04-06T10:10:19;11.63;;;10.73;;
14688;SDS011;7432;48.728;9.154;2023-04-06T10:12:48;11.40;;;10.60;;
14688;SDS011;7432;48.728;9.154;2023-04-06T10:15:14;10.80;;;9.98;;
14688;SDS011;7432;48.728;9.154;2023-04-06T10:17:41;11.10;;;10.30;;
14688;SDS011;7432;48.728;9.154;2023-04-06T10:20:09;10.83;;;9.90;;
14688;SDS011;7432;48.728;9.154;2023-04-06T10:22:41;11.77;;;10.70;;
14688;SDS011;7432;48.728;9.154;2023-04-06T10:25:15;11.17;;;10.07;;
14688;SDS011;7432;48.728;9.154;2023-04-06T10:27:42;10.57;;;9.67;;
14688;SDS011;7432;48.728;9.154;2023-04-06T10:30:10;11.60;;;10.60;;
14688;SDS011;7432;48.728;9.154;2023-04-06T10:32:37;10.73;;;9.93;;
14688;SDS011;7432;48.728;9.154;2023-04-06T10:35:05;11.20;;;10.10;;
14688;SDS011;7432;48.728;9.154;2023-04-06T10:37:45;11.70;;;10.60;;
14688;SDS011;7432;48.728;9.154;2023-04-06T10:40:17;11.57;;;10.57;;
14688;SDS011;7432;48.728;9.154;2023-04-06T10:42:44;10.90;;;10.00;;
14688;SDS011;7432;48.728;9.154;2023-04-06T10:45:19;11.30;;;10.13;;
14688;SDS011;7432;48.728;9.154;2023-04-06T10:47:47;11.20;;;10.10;;
14688;SDS011;7432;48.728;9.154;2023-04-06T10:50:14;13.33;;;10.93;;
14688;SDS011;7432;48.728;9.154;2023-04-06T10:52:41;10.97;;;10.07;;
14688;SDS011;7432;48.728;9.154;2023-04-06T10:55:08;10.70;;;9.70;;
14688;SDS011;7432;48.728;9.154;2023-04-06T10:57:35;11.00;;;10.07;;
14688;SDS011;7432;48.728;9.154;2023-04-06T11:00:03;10.27;;;9.27;;
14688;SDS011;7432;48.728;9.154;2023-04-06T11:02:32;11.37;;;10.50;;
14688;SDS011;7432;48.728;9.154;2023-04-06T11:04:58;11.00;;;10.10;;
14688;SDS011;7432;48.728;9.154;2023-04-06T11:07:25;11.80;;;10.80;;
14688;SDS011;7432;48.728;9.154;2023-04-06T11:09:52;11.00;;;10.20;;
14688;SDS011;7432;48.728;9.154;2023-04-06T11:12:22;10.70;;;9.80;;
14688;SDS011;7432;48.728;9.154;2023-04-06T11:14:53;11.17;;;10.27;;
14688;SDS011;7432;48.728;9.154;2023-04-06T11:17:25;10.90;;;10.10;;
14688;SDS011;7432;48.728;9.154;2023-04-06T11:19:53;10.93;;;10.03;;
14688;SDS011;7432;48.728;9.154;2023-04-06T11:22:19;10.90;;;9.90;;
14688;SDS011;7432;48.728;9.154;2023-04-06T11:24:46;11.20;;;10.20;;
14688;SDS011;7432;48.728;9.154;2023-04-06T11:27:13;10.63;;;9.63;;
14688;SDS011;7432;48.728;9.154;2023-04-06T11:29:41;11.33;;;10.33;;
14688;SDS011;7432;48.728;9.154;2023-04-06T11:32:08;10.37;;;9.47;;
14688;SDS011;7432;48.728;9.154;2023-04-06T11:34:35;11.37;;;10.27;;
14688;SDS011;7432;48.728;9.154;2023-04-06T11:37:06;10.23;;;9.30;;
14688;SDS011;7432;48.728;9.154;2023-04-06T11:39:37;9.57;;;8.57;;
14688;SDS011;7432;48.728;9.154;2023-04-06T11:42:05;10.60;;;9.60;;
14688;SDS011;7432;48.728;9.154;2023-04-06T11:44:32;9.40;;;8.60;;
14688;SDS011;7432;48.728;9.154;2023-04-06T11:47:00;10.87;;;9.27;;
14688;SDS011;7432;48.728;9.154;2023-04-06T11:49:27;11.37;;;10.40;;
14688;SDS011;7432;48.728;9.154;2023-04-06T11:51:54;11.47;;;10.37;;
14688;SDS011;7432;48.728;9.154;2023-04-06T11:54:30;10.57;;;9.53;;
14688;SDS011;7432;48.728;9.154;2023-04-06T11:56:57;10.77;;;9.87;;
14688;SDS011;7432;48.728;9.154;2023-04-06T11:59:25;10.60;;;9.60;;
14688;SDS011;7432;48.728;9.154;2023-04-06T12:01:52;11.03;;;9.97;;
14688;SDS011;7432;48.728;9.154;2023-04-06T12:04:18;10.63;;;9.73;;
14688;SDS011;7432;48.728;9.154;2023-04-06T12:06:45;10.30;;;9.33;;
14688;SDS011;7432;48.728;9.154;2023-04-06T12:09:11;10.67;;;9.67;;
14688;SDS011;7432;48.728;9.154;2023-04-06T12:11:39;10.57;;;9.67;;
14688;SDS011;7432;48.728;9.154;2023-04-06T12:14:06;10.37;;;9.47;;
14688;SDS011;7432;48.728;9.154;2023-04-06T12:16:32;11.03;;;10.13;;
14688;SDS011;7432;48.728;9.154;2023-04-06T12:18:59;10.70;;;9.67;;
14688;SDS011;7432;48.728;9.154;2023-04-06T12:21:26;11.00;;;10.00;;
14688;SDS011;7432;48.728;9.154;2023-04-06T12:23:53;10.83;;;9.83;;
14688;SDS011;7432;48.728;9.154;2023-04-06T12:26:19;10.30;;;9.43;;
14688;SDS011;7432;48.728;9.154;2023-04-06T12:28:47;10.50;;;9.60;;
14688;SDS011;7432;48.728;9.154;2023-04-06T12:31:16;10.83;;;8.93;;
14688;SDS011;7432;48.728;9.154;2023-04-06T12:33:44;10.73;;;9.70;;
14688;SDS011;7432;48.728;9.154;2023-04-06T12:36:13;10.47;;;9.57;;
14688;SDS011;7432;48.728;9.154;2023-04-06T12:38:40;9.83;;;8.93;;
14688;SDS011;7432;48.728;9.154;2023-04-06T12:41:07;10.27;;;9.37;;
14688;SDS011;7432;48.728;9.154;2023-04-06T12:43:33;9.80;;;8.90;;
14688;SDS011;7432;48.728;9.154;2023-04-06T12:46:01;10.43;;;8.97;;
14688;SDS011;7432;48.728;9.154;2023-04-06T12:48:27;10.70;;;9.80;;
14688;SDS011;7432;48.728;9.154;2023-04-06T12:50:55;10.27;;;9.37;;
14688;SDS011;7432;48.728;9.154;2023-04-06T12:53:23;10.20;;;9.30;;
14688;SDS011;7432;48.728;9.154;2023-04-06T12:55:49;9.70;;;8.90;;
14688;SDS011;7432;48.728;9.154;2023-04-06T12:58:16;9.23;;;8.43;;
14688;SDS011;7432;48.728;9.154;2023-04-06T13:00:43;9.97;;;9.17;;
14688;SDS011;7432;48.728;9.154;2023-04-06T13:03:10;10.80;;;9.90;;
14688;SDS011;7432;48.728;9.154;2023-04-06T13:05:43;10.73;;;9.73;;
14688;SDS011;7432;48.728;9.154;2023-04-06T13:08:09;10.17;;;9.37;;
14688;SDS011;7432;48.728;9.154;2023-04-06T13:10:36;9.43;;;8.70;;
14688;SDS011;7432;48.728;9.154;2023-04-06T13:13:02;10.03;;;8.93;;
14688;SDS011;7432;48.728;9.154;2023-04-06T13:15:28;9.87;;;9.00;;
14688;SDS011;7432;48.728;9.154;2023-04-06T13:17:55;9.70;;;8.80;;
14688;SDS011;7432;48.728;9.154;2023-04-06T13:20:23;9.20;;;8.30;;
14688;SDS011;7432;48.728;9.154;2023-04-06T13:22:50;10.20;;;8.67;;
14688;SDS011;7432;48.728;9.154;2023-04-06T13:25:16;10.13;;;9.23;;
14688;SDS011;7432;48.728;9.154;2023-04-06T13:27:43;10.43;;;9.50;;
14688;SDS011;7432;48.728;9.154;2023-04-06T13:30:11;9.93;;;8.90;;
14688;SDS011;7432;48.728;9.154;2023-04-06T13:32:39;10.57;;;9.57;;
14688;SDS011;7432;48.728;9.154;2023-04-06T13:35:05;10.40;;;9.50;;
14688;SDS011;7432;48.728;9.154;2023-04-06T13:37:34;9.63;;;8.73;;
14688;SDS011;7432;48.728;9.154;2023-04-06T13:40:01;10.13;;;9.33;;
14688;SDS011;7432;48.728;9.154;2023-04-06T13:42:29;10.00;;;9.10;;
14688;SDS011;7432;48.728;9.154;2023-04-06T13:44:56;9.97;;;9.07;;
14688;SDS011;7432;48.728;9.154;2023-04-06T13:47:22;9.83;;;8.93;;
14688;SDS011;7432;48.728;9.154;2023-04-06T13:49:49;10.20;;;9.30;;
14688;SDS011;7432;48.728;9.154;2023-04-06T13:52:17;12.67;;;9.57;;
14688;SDS011;7432;48.728;9.154;2023-04-06T13:54:46;10.77;;;9.77;;
14688;SDS011;7432;48.728;9.154;2023-04-06T13:57:12;9.80;;;9.00;;
14688;SDS011;7432;48.728;9.154;2023-04-06T13:59:39;9.90;;;9.10;;
14688;SDS011;7432;48.728;9.154;2023-04-06T14:02:05;10.30;;;9.37;;
14688;SDS011;7432;48.728;9.154;2023-04-06T14:04:33;10.57;;;9.57;;
14688;SDS011;7432;48.728;9.154;2023-04-06T14:07:00;10.03;;;9.13;;
14688;SDS011;7432;48.728;9.154;2023-04-06T14:09:27;9.87;;;9.07;;
14688;SDS011;7432;48.728;9.154;2023-04-06T14:11:55;9.33;;;8.53;;
14688;SDS011;7432;48.728;9.154;2023-04-06T14:14:22;10.37;;;8.97;;
14688;SDS011;7432;48.728;9.154;2023-04-06T14:16:49;10.63;;;9.73;;
14688;SDS011;7432;48.728;9.154;2023-04-06T14:19:16;10.47;;;9.53;;
14688;SDS011;7432;48.728;9.154;2023-04-06T14:21:44;10.30;;;9.43;;
14688;SDS011;7432;48.728;9.154;2023-04-06T14:24:10;10.40;;;9.50;;
14688;SDS011;7432;48.728;9.154;2023-04-06T14:26:37;10.50;;;9.60;;
14688;SDS011;7432;48.728;9.154;2023-04-06T14:29:06;10.00;;;9.20;;
14688;SDS011;7432;48.728;9.154;2023-04-06T14:31:33;9.30;;;8.50;;
14688;SDS011;7432;48.728;9.154;2023-04-06T14:34:00;10.07;;;9.17;;
14688;SDS011;7432;48.728;9.154;2023-04-06T14:36:27;9.83;;;9.03;;
14688;SDS011;7432;48.728;9.154;2023-04-06T14:38:56;10.40;;;9.50;;
14688;SDS011;7432;48.728;9.154;2023-04-06T14:41:23;10.20;;;9.20;;